Bookmark and Share
Track history (hours):
 

Blue Yonder

More information available from US FCC via Universal Licensing System and Coast Guard Vessel Documentation Center.

Last reported at 2014-Apr-14 19:33 UTC. Time now 2014-Apr-19 00:05 UTC.
Position N 26°06' W 080°06'.

Length 12 m.

Type: Sailing vessel. MMSI: 367091720.

NotesDate/timePositionNaut miles runAvg speedWind from/ knotsBaromVisibWave heightAir tempDewpointWater temp
2014-Apr-14 19:33N 26°06' W 080°06'1 0.9
2014-Apr-14 18:31N 26°05' W 080°06'0 0.0
2014-Apr-14 17:33N 26°05' W 080°06'2 1.7
2014-Apr-14 16:33N 26°06' W 080°07'  
2014-Apr-06 01:33N 26°08' W 080°07'0 0.0
2014-Apr-06 00:33N 26°08' W 080°07'0 0.5
2014-Apr-05 23:33N 26°08' W 080°07'2 1.4
2014-Apr-05 22:30N 26°06' W 080°07'2 1.7
2014-Apr-05 21:33N 26°06' W 080°05'2 1.7
2014-Apr-05 20:31N 26°08' W 080°05'0 0.0
2014-Apr-05 19:33N 26°08' W 080°05'3 2.8
2014-Apr-05 18:33N 26°10' W 080°04'3 2.7
2014-Apr-05 17:32N 26°10' W 080°01'3 2.5
2014-Apr-05 16:31N 26°08' W 080°03'2 1.9
2014-Apr-05 15:30N 26°06' W 080°03'2 2.5
2014-Apr-05 14:33N 26°06' W 080°06'1 1.3
2014-Apr-05 13:29N 26°07' W 080°07'1 1.1
2014-Apr-05 12:31N 26°08' W 080°07'0 0.0
2014-Apr-05 11:31N 26°08' W 080°07'0 0.0
2014-Apr-05 10:31N 26°08' W 080°07'0 0.0
2014-Apr-05 09:31N 26°08' W 080°07'0 0.0
2014-Apr-05 08:19N 26°08' W 080°07'0 0.0
2014-Apr-05 07:25N 26°08' W 080°07'0 0.0
2014-Apr-05 06:25N 26°08' W 080°07'0 0.0
2014-Apr-05 05:28N 26°08' W 080°07'0 0.0
2014-Apr-05 04:28N 26°08' W 080°07'0 0.0
2014-Apr-05 03:28N 26°08' W 080°07'0 0.0
2014-Apr-05 02:28N 26°08' W 080°07'0 0.0
2014-Apr-05 01:31N 26°08' W 080°07'0 0.0
2014-Apr-05 00:31N 26°08' W 080°07'  

Dump ship's entire track history

sailing weather and tide predictions

Blue Yonder — WCW3625 — position and weather